ENEV/EVE METAR and TAF weather

Enter ICAO airport designator
Station Type Date Time Source
ENEV METAR 2021/09/16 09:50 UTC NOAA

ENEV 160950Z 14007KT 110V170 CAVOK 10/02 Q1019 RMK WIND 1400FT 13011KT


Station Type Date Time Source
ENEV Decoded METAR 2021/09/16 09:50 UTC NOAA

Evenes, Norway (ENEV) 68-31N 016-41E 26M
Sep 16, 2021 - 05:50 AM EDT / 2021.09.16 0950 UTC
Wind: from the SE (140 degrees) at 8 MPH (7 KT) (direction variable):0
Visibility: greater than 7 mile(s):0
Temperature: 50 F (10 C)
Dew Point: 35 F (2 C)
Relative Humidity: 57%
Pressure (altimeter): 30.09 in. Hg (1019 hPa)
ob: ENEV 160950Z 14007KT 110V170 CAVOK 10/02 Q1019 RMK WIND 1400FT 13011KT
cycle: 10

Station Type Date Time Source
ENEV TAF 2010/02/05 07:50 UTC NOAA

METAR ENEV 050750Z 14007KT 9999 FEW040 SCT055 M04/M09 Q1019

Example: see airport list